createdAt,value
2017-05-27T00:02:24.852Z,0
2017-05-27T00:07:21.448Z,0
2017-05-27T00:12:17.082Z,0
2017-05-27T00:17:16.552Z,0
2017-05-27T00:22:14.268Z,0
2017-05-27T00:27:09.999Z,0
2017-05-27T00:37:10.953Z,0
2017-05-27T00:42:06.790Z,0
2017-05-27T00:47:03.238Z,0
2017-05-27T00:51:59.412Z,0
2017-05-27T01:02:02.008Z,0
2017-05-27T01:06:58.997Z,0
2017-05-27T01:16:58.510Z,0
2017-05-27T01:21:55.485Z,0
2017-05-27T01:26:54.389Z,0
2017-05-27T01:31:56.471Z,0
2017-05-27T01:36:51.692Z,0
2017-05-27T01:41:48.850Z,0
2017-05-27T01:46:46.168Z,0
2017-05-27T01:56:50.007Z,0
2017-05-27T02:06:48.718Z,0
2017-05-27T02:11:51.003Z,0
2017-05-27T02:16:46.283Z,0
2017-05-27T02:21:43.188Z,0
2017-05-27T02:26:40.266Z,0
2017-05-27T02:36:42.794Z,4
2017-05-27T02:41:40.573Z,4
2017-05-27T02:46:36.697Z,8
2017-05-27T02:51:33.983Z,12
2017-05-27T02:56:33.282Z,20
2017-05-27T03:01:28.624Z,36
2017-05-27T03:16:25.955Z,144
2017-05-27T03:21:22.289Z,204
2017-05-27T03:31:20.286Z,376
2017-05-27T03:36:16.646Z,488
2017-05-27T03:41:15.664Z,600
2017-05-27T03:46:10.773Z,724
2017-05-27T03:51:07.650Z,852
2017-05-27T03:56:05.943Z,976
2017-05-27T04:01:04.337Z,1104
2017-05-27T04:06:00.208Z,1232
2017-05-27T04:10:57.638Z,1348
2017-05-27T04:15:53.769Z,1460
2017-05-27T04:25:50.060Z,4532
2017-05-27T04:30:46.726Z,5592
2017-05-27T04:35:44.801Z,6436
2017-05-27T04:45:42.619Z,8340
2017-05-27T04:50:41.554Z,8780
2017-05-27T04:55:37.408Z,6696
2017-05-27T05:00:34.567Z,11432
2017-05-27T05:05:30.673Z,12508
2017-05-27T05:10:27.627Z,7524
2017-05-27T05:15:25.060Z,13096
2017-05-27T05:25:21.744Z,4380
2017-05-27T05:30:17.758Z,4448
2017-05-27T05:40:17.966Z,19776
2017-05-27T05:45:13.965Z,5268
2017-05-27T05:50:12.731Z,4632
2017-05-27T05:55:08.109Z,3548
2017-05-27T06:00:03.990Z,3304
2017-05-27T06:04:59.587Z,2976
2017-05-27T06:09:55.355Z,2988
2017-05-27T06:14:52.006Z,2992
2017-05-27T06:19:47.891Z,2984
2017-05-27T06:24:43.777Z,2980
2017-05-27T06:29:40.125Z,3080
2017-05-27T06:34:37.565Z,2940
2017-05-27T06:39:32.962Z,2940
2017-05-27T06:44:29.399Z,2988
2017-05-27T06:49:25.141Z,2940
2017-05-27T06:54:22.078Z,2992
2017-05-27T06:59:17.760Z,3012
2017-05-27T07:04:13.599Z,3072
2017-05-27T07:09:09.716Z,3136
2017-05-27T07:14:05.469Z,3088
2017-05-27T07:19:02.917Z,3176
2017-05-27T07:23:58.356Z,3296
2017-05-27T07:28:54.264Z,3304
2017-05-27T07:33:52.144Z,3268
2017-05-27T07:38:48.359Z,3416
2017-05-27T07:43:44.162Z,3644
2017-05-27T07:48:40.609Z,58560
2017-05-27T07:53:39.652Z,63168
2017-05-27T07:58:38.083Z,56736
2017-05-27T08:03:37.170Z,57536
2017-05-27T08:08:34.559Z,71232
2017-05-27T08:13:31.814Z,57376
2017-05-27T08:18:28.572Z,62688
2017-05-27T08:23:25.647Z,47616
2017-05-27T08:28:22.380Z,67840
2017-05-27T08:33:18.755Z,56224
2017-05-27T08:38:15.394Z,56224
2017-05-27T08:43:11.823Z,55136
2017-05-27T08:48:08.456Z,59264
2017-05-27T08:53:05.407Z,63360
2017-05-27T08:58:02.524Z,75008
2017-05-27T09:02:59.199Z,59072
2017-05-27T09:07:55.391Z,74976
2017-05-27T09:12:51.901Z,63904
2017-05-27T09:17:48.193Z,74112
2017-05-27T09:22:44.299Z,73408
2017-05-27T09:27:40.725Z,70848
2017-05-27T09:32:37.471Z,83616
2017-05-27T09:37:35.607Z,64768
2017-05-27T09:42:31.014Z,83936
2017-05-27T09:47:27.135Z,78272
2017-05-27T09:52:23.671Z,88576
2017-05-27T09:57:19.787Z,80288
2017-05-27T10:02:15.928Z,91040
2017-05-27T10:07:11.746Z,93952
2017-05-27T10:12:07.833Z,72672
2017-05-27T10:17:04.083Z,71584
2017-05-27T10:22:00.397Z,90112
2017-05-27T10:26:56.388Z,77376
2017-05-27T10:31:52.780Z,53824
2017-05-27T10:36:51.266Z,76960
2017-05-27T10:41:46.973Z,77696
2017-05-27T10:46:43.391Z,74944
2017-05-27T10:51:40.010Z,76672
2017-05-27T10:56:36.658Z,71488
2017-05-27T11:01:33.417Z,78464
2017-05-27T11:06:29.634Z,77408
2017-05-27T11:11:26.247Z,87552
2017-05-27T11:16:22.572Z,79104
2017-05-27T11:21:19.210Z,105984
2017-05-27T11:26:15.557Z,104736
2017-05-27T11:31:12.126Z,108128
2017-05-27T11:36:09.667Z,91776
2017-05-27T11:41:05.626Z,133152
2017-05-27T11:46:02.530Z,135200
2017-05-27T11:50:59.023Z,110656
2017-05-27T11:55:55.595Z,82656
2017-05-27T12:00:51.822Z,100992
2017-05-27T12:05:47.936Z,86816
2017-05-27T12:10:44.363Z,85056
2017-05-27T12:15:40.672Z,113408
2017-05-27T12:20:36.273Z,101728
2017-05-27T12:25:32.381Z,104224
2017-05-27T12:30:28.121Z,90848
2017-05-27T12:35:24.056Z,64736
2017-05-27T12:40:20.543Z,73440
2017-05-27T12:45:19.199Z,93600
2017-05-27T12:50:14.750Z,120320
2017-05-27T12:55:10.850Z,129152
2017-05-27T13:00:06.800Z,108736
2017-05-27T13:05:04.895Z,86976
2017-05-27T13:09:59.651Z,73920
2017-05-27T13:14:56.258Z,67168
2017-05-27T13:19:51.693Z,80672
2017-05-27T13:24:47.429Z,97792
2017-05-27T13:29:46.202Z,90496
2017-05-27T13:34:41.436Z,73888
2017-05-27T13:39:36.985Z,67776
2017-05-27T13:44:32.645Z,82048
2017-05-27T13:49:28.561Z,86080
2017-05-27T13:54:24.611Z,91008
2017-05-27T13:59:20.819Z,85152
2017-05-27T14:04:17.866Z,4180
2017-05-27T14:09:12.407Z,3148
2017-05-27T14:14:08.392Z,2964
2017-05-27T14:19:03.168Z,2932
2017-05-27T14:23:59.319Z,2868
2017-05-27T14:28:54.343Z,2816
2017-05-27T14:33:49.774Z,2736
2017-05-27T14:38:45.586Z,2628
2017-05-27T14:43:44.179Z,2572
2017-05-27T14:48:39.849Z,2552
2017-05-27T14:53:35.449Z,2524
2017-05-27T14:58:31.085Z,2468
2017-05-27T15:03:27.122Z,2440
2017-05-27T15:08:23.576Z,2420
2017-05-27T15:13:19.242Z,2400
2017-05-27T15:18:15.540Z,2364
2017-05-27T15:23:11.414Z,2312
2017-05-27T15:28:07.365Z,2284
2017-05-27T15:33:03.268Z,2264
2017-05-27T15:37:59.390Z,2256
2017-05-27T15:42:55.538Z,2224
2017-05-27T15:47:51.401Z,2196
2017-05-27T15:52:49.836Z,2164
2017-05-27T15:57:48.422Z,2124
2017-05-27T16:02:43.866Z,2072
2017-05-27T16:07:40.243Z,2036
2017-05-27T16:12:36.175Z,2016
2017-05-27T16:17:32.613Z,2004
2017-05-27T16:22:28.262Z,1996
2017-05-27T16:27:24.415Z,1980
2017-05-27T16:32:20.298Z,1956
2017-05-27T16:37:16.270Z,1940
2017-05-27T16:42:12.123Z,1924
2017-05-27T16:47:08.124Z,1900
2017-05-27T16:52:05.931Z,1868
2017-05-27T16:57:01.172Z,1836
2017-05-27T17:01:57.242Z,1812
2017-05-27T17:06:53.827Z,1784
2017-05-27T17:11:50.094Z,1744
2017-05-27T17:16:49.485Z,1700
2017-05-27T17:21:44.853Z,1664
2017-05-27T17:26:40.845Z,1632
2017-05-27T17:31:36.585Z,1608
2017-05-27T17:41:33.181Z,1528
2017-05-27T17:46:30.294Z,1500
2017-05-27T17:51:27.357Z,1460
2017-05-27T18:01:22.759Z,1388
2017-05-27T18:06:19.044Z,1344
2017-05-27T18:11:14.843Z,1304
2017-05-27T18:16:11.858Z,1252
2017-05-27T18:21:08.164Z,1204
2017-05-27T18:26:03.949Z,1144
2017-05-27T18:31:00.048Z,1084
2017-05-27T18:35:56.052Z,1020
2017-05-27T18:40:54.567Z,948
2017-05-27T18:45:49.993Z,876
2017-05-27T18:50:45.855Z,800
2017-05-27T18:55:42.193Z,720
2017-05-27T19:00:37.948Z,636
2017-05-27T19:05:33.727Z,556
2017-05-27T19:10:30.051Z,468
2017-05-27T19:15:25.862Z,384
2017-05-27T19:20:21.730Z,300
2017-05-27T19:25:17.429Z,220
2017-05-27T19:30:14.181Z,156
2017-05-27T19:35:09.896Z,104
2017-05-27T19:40:06.013Z,68
2017-05-27T19:45:04.152Z,44
2017-05-27T19:49:59.226Z,28
2017-05-27T19:55:01.008Z,16
2017-05-27T19:59:55.579Z,12
2017-05-27T20:04:51.297Z,4
2017-05-27T20:09:47.366Z,0
2017-05-27T20:14:44.515Z,0
2017-05-27T20:19:40.215Z,0
2017-05-27T20:24:36.203Z,0
2017-05-27T20:29:31.644Z,0
2017-05-27T20:34:27.998Z,0
2017-05-27T20:39:24.184Z,0
2017-05-27T20:44:20.421Z,0
2017-05-27T20:49:16.214Z,0
2017-05-27T20:54:11.844Z,0
2017-05-27T20:59:08.105Z,0
2017-05-27T21:04:04.391Z,0
2017-05-27T21:09:00.533Z,0
2017-05-27T21:13:56.238Z,0
2017-05-27T21:18:52.446Z,0
2017-05-27T21:23:48.155Z,0
2017-05-27T21:28:44.045Z,0
2017-05-27T21:33:39.859Z,0
2017-05-27T21:38:36.511Z,0
2017-05-27T21:43:33.781Z,0
2017-05-27T21:48:29.060Z,0
2017-05-27T21:53:24.947Z,0
2017-05-27T21:58:20.910Z,0
2017-05-27T22:03:16.634Z,0
2017-05-27T22:08:13.202Z,0
2017-05-27T22:13:10.540Z,0
2017-05-27T22:18:05.873Z,0
2017-05-27T22:23:01.795Z,0
2017-05-27T22:27:57.535Z,0
2017-05-27T22:32:53.333Z,0
2017-05-27T22:37:49.290Z,0
2017-05-27T22:42:46.654Z,0
2017-05-27T22:47:42.268Z,0
2017-05-27T22:52:38.093Z,0
2017-05-27T22:57:33.910Z,0
2017-05-27T23:02:29.952Z,0
2017-05-27T23:07:25.778Z,0
2017-05-27T23:12:22.528Z,0
2017-05-27T23:17:18.234Z,0
2017-05-27T23:22:14.086Z,0
2017-05-27T23:27:10.948Z,0
2017-05-27T23:32:06.468Z,0
2017-05-27T23:37:02.921Z,0
2017-05-27T23:41:58.576Z,0
2017-05-27T23:46:54.317Z,0
2017-05-27T23:51:49.895Z,0
2017-05-27T23:56:45.731Z,0
